Time;durP1;ratioP1;P1;durP2;ratioP2;P2;SDS_P1;SDS_P2;PMS_P1;PMS_P2;Temp;Humidity;BMP_temperature;BMP_pressure;BME280_temperature;BME280_humidity;BME280_pressure;Samples;Min_cycle;Max_cycle;Signal;HPM_P1;HPM_P2
2021/12/15 00:02:19;;;;;;;185.60;72.80;;;;;;;1.64;86.31;99754.92;105873;1316;22633;-75
2021/12/15 00:04:52;;;;;;;178.20;70.40;;;;;;;1.63;86.32;99759.06;105876;1316;23075;-75
2021/12/15 00:07:21;;;;;;;202.10;82.20;;;;;;;1.59;86.41;99765.13;105853;1316;22632;-75
2021/12/15 00:09:48;;;;;;;203.40;83.30;;;;;;;1.53;86.61;99765.54;105860;1316;22708;-75
2021/12/15 00:12:17;;;;;;;192.70;80.30;;;;;;;1.48;86.42;99763.52;105877;1316;22615;-76
2021/12/15 00:14:45;;;;;;;192.90;77.10;;;;;;;1.44;86.38;99769.39;105822;1316;23481;-76
2021/12/15 00:17:13;;;;;;;185.30;70.00;;;;;;;1.46;86.39;99763.89;105789;1318;23096;-76
2021/12/15 00:19:41;;;;;;;161.30;65.60;;;;;;;1.48;86.21;99755.63;105776;1318;22556;-76
2021/12/15 00:22:08;;;;;;;138.30;58.80;;;;;;;1.49;86.38;99752.88;105756;1314;23030;-76
2021/12/15 00:24:35;;;;;;;151.30;62.30;;;;;;;1.48;86.47;99752.53;105768;1310;22582;-76
2021/12/15 00:27:03;;;;;;;159.00;64.40;;;;;;;1.49;86.62;99755.96;105858;1316;22591;-76
2021/12/15 00:29:30;;;;;;;174.80;73.70;;;;;;;1.46;86.51;99753.23;105867;1314;22570;-77
2021/12/15 00:31:58;;;;;;;187.40;77.30;;;;;;;1.42;86.39;99752.95;105939;1316;25428;-77
2021/12/15 00:34:25;;;;;;;186.60;76.60;;;;;;;1.42;86.40;99748.13;105940;1316;23379;-77
2021/12/15 00:36:52;;;;;;;201.80;82.50;;;;;;;1.41;86.35;99747.48;105958;1314;25538;-77
2021/12/15 00:39:21;;;;;;;176.20;74.70;;;;;;;1.37;86.51;99744.40;105958;1310;22731;-77
2021/12/15 00:41:49;;;;;;;205.30;84.60;;;;;;;1.35;86.66;99741.52;105931;1316;22590;-77
2021/12/15 00:44:17;;;;;;;216.90;84.90;;;;;;;1.31;86.65;99746.55;105945;1316;22612;-76
2021/12/15 00:46:44;;;;;;;221.70;83.10;;;;;;;1.27;86.54;99745.20;105868;1316;26674;-76
2021/12/15 00:49:12;;;;;;;221.70;87.40;;;;;;;1.30;86.41;99745.01;105888;1314;23566;-76
2021/12/15 00:51:40;;;;;;;175.10;75.80;;;;;;;1.33;86.61;99744.98;105848;1314;22697;-76
2021/12/15 00:54:07;;;;;;;178.10;73.00;;;;;;;1.35;86.57;99746.99;105847;1316;22601;-75
2021/12/15 00:56:35;;;;;;;187.90;76.60;;;;;;;1.37;86.67;99744.41;105841;1316;22572;-76
2021/12/15 00:59:04;;;;;;;179.70;73.40;;;;;;;1.41;86.80;99748.67;105871;1316;22553;-76
2021/12/15 01:01:32;;;;;;;171.20;70.60;;;;;;;1.41;86.71;99750.55;105850;1316;23112;-76
2021/12/15 01:04:00;;;;;;;177.10;66.00;;;;;;;1.42;86.55;99751.23;105850;1316;23192;-76
2021/12/15 01:06:28;;;;;;;174.60;69.00;;;;;;;1.47;86.40;99751.52;105836;1316;24520;-76
2021/12/15 01:09:02;;;;;;;158.80;66.90;;;;;;;1.50;86.35;99751.84;105875;1316;22596;-76
2021/12/15 01:14:34;;;;;;;169.90;70.20;;;;;;;1.48;86.60;99758.03;105867;1316;22686;-76
2021/12/15 01:19:55;;;;;;;181.80;69.10;;;;;;;1.39;86.48;99770.83;105833;1316;22617;-76
2021/12/15 01:22:38;;;;;;;179.30;72.10;;;;;;;1.39;86.30;99772.55;105838;1316;25274;-76
2021/12/15 01:25:17;;;;;;;183.80;71.20;;;;;;;1.37;86.44;99775.13;105888;1316;22579;-76
2021/12/15 01:27:45;;;;;;;193.20;76.40;;;;;;;1.33;86.59;99771.92;105898;1316;22969;-75
2021/12/15 01:30:15;;;;;;;191.50;75.70;;;;;;;1.33;86.75;99775.36;106422;1316;22711;-75
2021/12/15 01:32:43;;;;;;;185.70;75.40;;;;;;;1.33;86.68;99776.56;105830;1316;25354;-75
2021/12/15 01:37:47;;;;;;;196.70;76.00;;;;;;;1.41;86.54;99776.13;106812;1303;22580;-75
2021/12/15 01:40:26;;;;;;;182.30;73.60;;;;;;;1.47;86.47;99776.23;105432;1316;22652;-75
2021/12/15 01:42:54;;;;;;;168.50;70.00;;;;;;;1.48;86.53;99769.02;105402;1322;22649;-76
2021/12/15 01:48:10;;;;;;;175.90;73.30;;;;;;;1.50;86.67;99756.81;105704;1321;22663;-75
2021/12/15 01:50:38;;;;;;;184.70;73.20;;;;;;;1.50;86.65;99756.30;105672;1321;22667;-76
2021/12/15 01:53:07;;;;;;;192.10;72.60;;;;;;;1.49;86.56;99755.28;105664;1321;22597;-76
2021/12/15 01:55:34;;;;;;;177.50;71.20;;;;;;;1.55;86.38;99755.38;105572;1315;22649;-76
2021/12/15 01:58:01;;;;;;;169.50;69.50;;;;;;;1.58;86.24;99755.36;105566;1321;23149;-76
2021/12/15 02:00:50;;;;;;;154.60;63.60;;;;;;;1.60;86.39;99760.30;105581;1322;22602;-76
2021/12/15 02:03:17;;;;;;;175.50;68.70;;;;;;;1.59;86.34;99762.39;105571;1322;22649;-75
2021/12/15 02:05:45;;;;;;;180.40;71.40;;;;;;;1.59;86.42;99760.67;105576;1322;22705;-75
2021/12/15 02:08:12;;;;;;;168.80;70.10;;;;;;;1.57;86.32;99758.28;105523;1321;22955;-75
2021/12/15 02:10:42;;;;;;;178.10;69.90;;;;;;;1.58;86.33;99763.94;105417;1322;22652;-75
2021/12/15 02:13:12;;;;;;;183.20;69.70;;;;;;;1.62;86.06;99766.45;105682;1321;25568;-75
2021/12/15 02:15:44;;;;;;;180.90;68.20;;;;;;;1.64;86.05;99764.20;105696;1322;22726;-75
2021/12/15 02:18:14;;;;;;;187.00;74.20;;;;;;;1.61;86.14;99765.27;105693;1322;22585;-75
2021/12/15 02:20:46;;;;;;;215.70;83.10;;;;;;;1.56;86.15;99764.64;105672;1322;22597;-74
2021/12/15 02:23:17;;;;;;;204.70;80.80;;;;;;;1.51;86.28;99771.73;105674;1322;22645;-74
2021/12/15 02:25:44;;;;;;;191.70;75.90;;;;;;;1.46;86.05;99773.33;105520;1322;22592;-75
2021/12/15 02:28:12;;;;;;;195.60;74.20;;;;;;;1.42;86.05;99771.67;105678;1320;22684;-75
2021/12/15 02:38:40;;;;;;;201.10;78.50;;;;;;;1.39;86.26;99781.80;105635;1317;22649;-75
2021/12/15 02:41:19;;;;;;;206.90;81.30;;;;;;;1.37;86.26;99783.20;105508;1320;22649;-75
2021/12/15 02:43:59;;;;;;;197.20;79.70;;;;;;;1.36;86.17;99786.64;105527;1322;22656;-75
2021/12/15 02:46:27;;;;;;;206.80;79.40;;;;;;;1.35;86.10;99789.05;105543;1322;22595;-75
2021/12/15 02:48:55;;;;;;;210.60;80.40;;;;;;;1.36;85.91;99791.27;105547;1322;22591;-75
2021/12/15 02:51:24;;;;;;;195.60;78.80;;;;;;;1.39;85.98;99792.46;105519;1322;24301;-75
2021/12/15 02:53:52;;;;;;;167.80;72.10;;;;;;;1.38;86.08;99797.09;105490;1322;22661;-75
2021/12/15 02:56:19;;;;;;;181.90;76.60;;;;;;;1.32;86.29;99796.83;105553;1322;22588;-76
2021/12/15 02:58:56;;;;;;;189.50;76.30;;;;;;;1.25;86.30;99801.86;105538;1322;25169;-75
2021/12/15 03:05:05;;;;;;;171.40;69.90;;;;;;;1.14;86.15;99806.94;105311;1322;22669;-76
2021/12/15 03:07:32;;;;;;;177.50;70.30;;;;;;;1.13;85.99;99808.83;105481;1322;22631;-75
2021/12/15 03:15:34;;;;;;;146.90;68.30;;;;;;;1.08;86.38;99818.29;105658;1314;24203;-76
2021/12/15 03:18:04;;;;;;;153.60;69.30;;;;;;;1.06;86.49;99816.61;105669;1321;22581;-76
2021/12/15 03:20:38;;;;;;;175.90;69.20;;;;;;;1.06;86.40;99819.00;105633;1322;22647;-76
2021/12/15 03:23:08;;;;;;;166.10;70.30;;;;;;;1.13;86.30;99824.10;105655;1321;22655;-76
2021/12/15 03:25:36;;;;;;;163.50;70.20;;;;;;;1.18;86.24;99825.95;105628;1322;22657;-76
2021/12/15 03:33:58;;;;;;;188.10;78.60;;;;;;;1.18;86.55;99827.48;105601;1322;22810;-76
2021/12/15 03:36:53;;;;;;;192.20;79.50;;;;;;;1.19;86.45;99827.13;105624;1321;22588;-76
2021/12/15 03:39:21;;;;;;;198.30;77.10;;;;;;;1.23;86.42;99827.10;105603;1321;25559;-76
2021/12/15 03:41:59;;;;;;;183.60;76.00;;;;;;;1.27;86.22;99818.65;105650;1322;22652;-76
2021/12/15 03:44:28;;;;;;;174.70;71.50;;;;;;;1.29;86.20;99818.98;105609;1317;23470;-76
2021/12/15 03:46:57;;;;;;;180.70;73.90;;;;;;;1.28;86.19;99818.98;105597;1321;22670;-76
2021/12/15 03:49:25;;;;;;;159.90;70.50;;;;;;;1.27;86.47;99818.64;105590;1322;22565;-75
2021/12/15 03:51:52;;;;;;;168.50;71.60;;;;;;;1.29;86.59;99829.95;105615;1322;22590;-75
2021/12/15 03:54:19;;;;;;;170.80;68.70;;;;;;;1.34;86.49;99827.86;105628;1321;22573;-76
2021/12/15 03:56:49;;;;;;;165.70;69.90;;;;;;;1.40;86.26;99826.27;105613;1322;22586;-75
2021/12/15 03:59:18;;;;;;;151.90;62.80;;;;;;;1.44;86.31;99825.35;105673;1321;25405;-75
2021/12/15 04:01:46;;;;;;;152.20;64.90;;;;;;;1.48;86.41;99823.95;105643;1321;22607;-76
2021/12/15 04:04:13;;;;;;;158.10;66.60;;;;;;;1.49;86.33;99824.80;105630;1320;23055;-76
2021/12/15 04:06:41;;;;;;;152.00;69.20;;;;;;;1.46;86.25;99828.08;105660;1321;22802;-76
2021/12/15 04:09:11;;;;;;;161.80;71.40;;;;;;;1.42;86.20;99837.57;105690;1322;22638;-77
2021/12/15 04:11:40;;;;;;;175.30;69.60;;;;;;;1.36;86.12;99841.05;105637;1321;22656;-75
2021/12/15 04:14:12;;;;;;;150.70;67.30;;;;;;;1.35;85.87;99837.28;105634;1322;22643;-75
2021/12/15 04:16:46;;;;;;;156.90;65.80;;;;;;;1.36;86.01;99838.98;105634;1322;22588;-75
2021/12/15 04:19:17;;;;;;;156.60;62.50;;;;;;;1.36;86.05;99840.36;105639;1322;22646;-76
2021/12/15 04:21:45;;;;;;;153.10;66.90;;;;;;;1.34;86.32;99839.70;105481;1322;22580;-77
2021/12/15 04:24:15;;;;;;;160.80;66.40;;;;;;;1.35;86.42;99840.05;105398;1322;22584;-75
2021/12/15 04:26:45;;;;;;;169.30;70.30;;;;;;;1.36;86.36;99840.37;105345;1322;23026;-75
2021/12/15 04:29:13;;;;;;;162.40;69.20;;;;;;;1.36;86.11;99840.02;105374;1317;23274;-75
2021/12/15 04:31:45;;;;;;;163.90;71.50;;;;;;;1.40;86.03;99839.66;105394;1321;22617;-76
2021/12/15 04:34:12;;;;;;;154.50;71.40;;;;;;;1.43;86.06;99837.92;105755;1322;22597;-74
2021/12/15 04:36:43;;;;;;;142.30;66.20;;;;;;;1.44;86.17;99840.45;105387;1316;24470;-76
2021/12/15 04:39:14;;;;;;;154.70;67.80;;;;;;;1.45;86.44;99845.60;105357;1320;22649;-74
2021/12/15 04:41:47;;;;;;;153.50;67.20;;;;;;;1.46;86.58;99844.40;105328;1322;22588;-74
2021/12/15 04:44:15;;;;;;;140.50;62.10;;;;;;;1.49;86.49;99847.98;105350;1320;22720;-75
2021/12/15 04:46:58;;;;;;;136.30;61.90;;;;;;;1.50;86.52;99850.37;105359;1322;22630;-74
2021/12/15 04:49:29;;;;;;;127.90;59.60;;;;;;;1.60;86.37;99850.79;105316;1322;23519;-74
2021/12/15 04:51:57;;;;;;;120.50;54.50;;;;;;;1.62;86.33;99850.94;105332;1321;24225;-75
2021/12/15 04:54:25;;;;;;;119.20;56.70;;;;;;;1.65;86.38;99851.95;105293;1322;26892;-74
2021/12/15 04:56:53;;;;;;;122.60;55.90;;;;;;;1.65;86.40;99851.77;105336;1322;22589;-74
2021/12/15 04:59:20;;;;;;;119.10;56.00;;;;;;;1.65;86.48;99848.33;105388;1322;22661;-75
2021/12/15 05:01:49;;;;;;;115.60;55.40;;;;;;;1.68;86.49;99849.17;105295;1320;24225;-74
2021/12/15 05:04:16;;;;;;;121.30;55.80;;;;;;;1.71;86.36;99853.41;105328;1322;24444;-74
2021/12/15 05:06:44;;;;;;;116.10;54.60;;;;;;;1.76;86.21;99858.02;105346;1316;23450;-74
2021/12/15 05:09:14;;;;;;;113.50;51.80;;;;;;;1.77;86.08;99856.65;105333;1322;24110;-75
2021/12/15 05:11:42;;;;;;;124.60;54.80;;;;;;;1.71;86.23;99859.44;105304;1320;25515;-74
2021/12/15 05:14:09;;;;;;;118.20;54.20;;;;;;;1.70;86.39;99860.48;105329;1321;27716;-75
2021/12/15 05:16:36;;;;;;;131.60;59.10;;;;;;;1.68;86.39;99861.53;105324;1322;22681;-75
2021/12/15 05:19:03;;;;;;;134.80;60.70;;;;;;;1.62;86.21;99862.11;105347;1322;22860;-75
2021/12/15 05:21:31;;;;;;;135.20;59.70;;;;;;;1.56;86.09;99863.36;105357;1322;22829;-74
2021/12/15 05:24:07;;;;;;;130.30;57.20;;;;;;;1.58;86.05;99867.30;105341;1322;23515;-74
2021/12/15 05:26:34;;;;;;;131.00;55.80;;;;;;;1.59;86.13;99866.44;105339;1319;23633;-75
2021/12/15 05:29:01;;;;;;;126.40;56.10;;;;;;;1.59;86.20;99869.87;105310;1322;22591;-75
2021/12/15 05:31:29;;;;;;;128.00;56.30;;;;;;;1.60;86.34;99876.73;105317;1322;25710;-74
2021/12/15 05:33:56;;;;;;;128.10;56.00;;;;;;;1.60;86.40;99881.88;105343;1321;25559;-75
2021/12/15 05:36:23;;;;;;;121.70;56.90;;;;;;;1.57;86.29;99886.02;105333;1317;22622;-74
2021/12/15 05:38:50;;;;;;;123.10;58.10;;;;;;;1.56;86.33;99887.74;105308;1322;22720;-74
2021/12/15 05:41:17;;;;;;;120.70;56.70;;;;;;;1.64;86.19;99881.49;105319;1322;22694;-75
2021/12/15 05:43:44;;;;;;;117.50;55.90;;;;;;;1.70;86.15;99881.60;105354;1320;23101;-75
2021/12/15 05:46:11;;;;;;;111.50;52.00;;;;;;;1.73;86.30;99887.75;105370;1320;22669;-75
2021/12/15 05:48:38;;;;;;;114.30;54.20;;;;;;;1.73;86.48;99888.61;105337;1321;22588;-74
2021/12/15 05:51:05;;;;;;;138.30;58.40;;;;;;;1.70;86.43;99892.59;105325;1321;23117;-75
2021/12/15 05:53:32;;;;;;;123.80;57.70;;;;;;;1.64;86.35;99892.30;105320;1322;22636;-75
2021/12/15 05:55:59;;;;;;;143.00;61.60;;;;;;;1.61;86.26;99891.81;105359;1321;22580;-75
2021/12/15 05:58:28;;;;;;;132.20;59.80;;;;;;;1.61;86.14;99895.10;105338;1321;22615;-74
2021/12/15 06:00:55;;;;;;;141.00;59.20;;;;;;;1.57;86.19;99897.86;105344;1322;22619;-74
2021/12/15 06:03:22;;;;;;;122.50;56.30;;;;;;;1.56;86.37;99896.67;105313;1322;22604;-74
2021/12/15 06:05:49;;;;;;;134.60;63.50;;;;;;;1.53;86.52;99899.45;105315;1321;22700;-74
2021/12/15 06:08:17;;;;;;;148.70;63.20;;;;;;;1.48;86.57;99898.80;105360;1320;22652;-74
2021/12/15 06:10:44;;;;;;;206.20;83.80;;;;;;;1.45;86.64;99899.33;105364;1319;22599;-75
2021/12/15 06:13:12;;;;;;;180.40;70.10;;;;;;;1.47;86.66;99901.73;105340;1320;22726;-76
2021/12/15 06:15:42;;;;;;;128.50;52.30;;;;;;;1.56;86.45;99907.66;105307;1321;25410;-76
2021/12/15 06:18:14;;;;;;;179.70;75.90;;;;;;;1.64;86.37;99913.09;105291;1321;23387;-76
2021/12/15 06:20:42;;;;;;;157.20;68.40;;;;;;;1.72;86.55;99913.70;105312;1319;22593;-77
2021/12/15 06:23:17;;;;;;;162.60;67.80;;;;;;;1.77;86.81;99912.80;105335;1322;22596;-75
2021/12/15 06:25:46;;;;;;;143.10;60.50;;;;;;;1.84;86.85;99908.27;105291;1321;22578;-75
2021/12/15 06:28:14;;;;;;;140.30;59.30;;;;;;;1.93;87.14;99911.43;105297;1321;22623;-75
2021/12/15 06:30:44;;;;;;;162.20;70.90;;;;;;;2.02;86.67;99913.06;105321;1322;22592;-76
2021/12/15 06:33:13;;;;;;;121.80;55.50;;;;;;;2.05;86.55;99912.17;105315;1321;24097;-74
2021/12/15 06:35:48;;;;;;;109.60;47.90;;;;;;;2.07;86.96;99918.50;105317;1321;22782;-74
2021/12/15 06:38:16;;;;;;;121.30;52.90;;;;;;;2.04;87.00;99919.08;105317;1320;25444;-74
2021/12/15 06:40:43;;;;;;;115.60;53.30;;;;;;;2.00;86.97;99926.14;105329;1320;22645;-75
2021/12/15 06:43:10;;;;;;;123.00;50.80;;;;;;;2.00;86.95;99923.91;105357;1320;22578;-75
2021/12/15 06:45:50;;;;;;;116.50;50.90;;;;;;;2.04;86.70;99924.58;105331;1321;22700;-75
2021/12/15 06:59:20;;;;;;;120.50;50.00;;;;;;;2.16;87.00;99937.30;105306;1321;24454;-75
2021/12/15 07:01:50;;;;;;;110.40;48.60;;;;;;;2.22;86.80;99939.15;105314;1322;22622;-76
2021/12/15 07:04:20;;;;;;;117.20;52.10;;;;;;;2.25;86.87;99942.19;104974;1310;500904;-76
2021/12/15 07:06:50;;;;;;;133.60;59.20;;;;;;;2.29;86.99;99943.72;105389;1321;24247;-77
2021/12/15 07:09:18;;;;;;;121.60;56.30;;;;;;;2.29;87.01;99943.20;105359;1322;22656;-74
2021/12/15 07:11:45;;;;;;;134.50;61.50;;;;;;;2.32;86.96;99945.58;105371;1321;22743;-76
2021/12/15 07:14:12;;;;;;;148.30;61.90;;;;;;;2.36;87.05;99944.48;105368;1322;22740;-75
2021/12/15 07:16:43;;;;;;;141.90;61.00;;;;;;;2.42;86.76;99943.21;105374;1322;23358;-76
2021/12/15 07:19:19;;;;;;;133.30;58.70;;;;;;;2.46;86.67;99938.19;105332;1321;22574;-75
2021/12/15 07:24:35;;;;;;;138.00;58.30;;;;;;;2.45;86.96;99940.60;105359;1322;22721;-75
2021/12/15 07:27:04;;;;;;;132.70;56.50;;;;;;;2.45;87.08;99948.34;105323;1322;23088;-75
2021/12/15 07:29:32;;;;;;;138.30;55.90;;;;;;;2.48;87.11;99950.38;105331;1322;22554;-76
2021/12/15 07:31:59;;;;;;;124.20;51.40;;;;;;;2.55;86.80;99949.26;105314;1322;23187;-76
2021/12/15 07:34:26;;;;;;;102.20;46.50;;;;;;;2.58;86.69;99947.68;105539;1322;22595;-76
2021/12/15 07:36:54;;;;;;;105.40;46.60;;;;;;;2.59;86.99;99949.05;105371;1321;25940;-76
2021/12/15 07:39:22;;;;;;;100.20;46.80;;;;;;;2.58;87.12;99954.23;105324;1322;22894;-76
2021/12/15 07:42:02;;;;;;;100.60;45.80;;;;;;;2.56;87.08;99958.36;105260;1322;22606;-77
2021/12/15 07:44:29;;;;;;;111.10;46.50;;;;;;;2.56;87.00;99967.48;105274;1322;23581;-77
2021/12/15 07:46:57;;;;;;;97.30;45.20;;;;;;;2.60;86.96;99967.91;105296;1316;22784;-77
2021/12/15 07:49:25;;;;;;;105.20;44.80;;;;;;;2.63;86.89;99976.67;105328;1322;22737;-76
2021/12/15 07:52:00;;;;;;;99.00;44.00;;;;;;;2.66;87.03;99982.16;105216;1322;26026;-77
2021/12/15 07:54:30;;;;;;;106.00;44.90;;;;;;;2.65;87.36;99988.52;105244;1322;22628;-77
2021/12/15 07:56:57;;;;;;;103.10;46.00;;;;;;;2.65;87.11;99990.94;105312;1319;23318;-76
2021/12/15 07:59:25;;;;;;;114.40;45.70;;;;;;;2.67;87.26;99992.80;105278;1322;22659;-77
2021/12/15 08:01:52;;;;;;;97.40;43.60;;;;;;;2.73;87.09;99996.86;105253;1322;22648;-75
2021/12/15 08:04:19;;;;;;;99.20;44.50;;;;;;;2.77;87.04;99995.96;105295;1322;22799;-76
2021/12/15 08:06:47;;;;;;;100.10;47.10;;;;;;;2.81;87.17;99989.70;105280;1322;22797;-78
2021/12/15 08:09:15;;;;;;;109.80;50.30;;;;;;;2.82;87.24;99992.45;105210;1322;22778;-76
2021/12/15 08:11:42;;;;;;;107.10;48.00;;;;;;;2.83;87.25;100000.18;105561;1322;22789;-77
2021/12/15 08:14:10;;;;;;;108.30;48.80;;;;;;;2.86;87.14;99998.94;105241;1322;22958;-79
2021/12/15 08:16:37;;;;;;;110.00;47.60;;;;;;;2.89;87.11;100003.38;105293;1322;22658;-77
2021/12/15 08:19:04;;;;;;;110.90;48.60;;;;;;;2.92;86.84;100001.10;105285;1322;26066;-77
2021/12/15 08:21:32;;;;;;;110.10;48.20;;;;;;;2.94;86.99;100000.04;105318;1322;22688;-77
2021/12/15 08:23:59;;;;;;;98.40;46.60;;;;;;;2.97;87.16;100000.00;105489;1321;22532;-78
2021/12/15 08:26:26;;;;;;;105.90;48.60;;;;;;;2.95;87.36;100001.91;105558;1322;22698;-79
2021/12/15 08:28:55;;;;;;;109.00;47.60;;;;;;;2.96;87.27;100004.31;105564;1321;25930;-77
2021/12/15 08:31:22;;;;;;;121.30;57.00;;;;;;;2.98;87.17;100010.30;105486;1322;22623;-77
2021/12/15 08:33:49;;;;;;;123.90;60.10;;;;;;;3.01;87.07;100013.73;105494;1319;22643;-75
2021/12/15 08:36:16;;;;;;;139.50;60.30;;;;;;;3.04;86.93;100014.70;105497;1322;22715;-76
2021/12/15 08:38:46;;;;;;;116.10;51.30;;;;;;;3.09;87.10;100015.69;105454;1322;25219;-76
2021/12/15 08:41:19;;;;;;;121.40;55.00;;;;;;;3.10;87.17;100016.88;105423;1322;22736;-77
2021/12/15 08:43:47;;;;;;;131.20;56.60;;;;;;;3.11;87.33;100014.45;105463;1321;22566;-79
2021/12/15 08:46:21;;;;;;;124.20;54.60;;;;;;;3.13;86.93;100018.73;105437;1322;22652;-78
2021/12/15 08:48:49;;;;;;;146.30;56.90;;;;;;;3.14;86.69;100026.11;105497;1322;22698;-77
2021/12/15 08:51:25;;;;;;;139.10;56.00;;;;;;;3.17;86.71;100027.62;105529;1322;22685;-77
2021/12/15 08:53:58;;;;;;;137.00;56.90;;;;;;;3.21;86.72;100032.05;105499;1320;22653;-78
2021/12/15 08:56:25;;;;;;;139.80;57.70;;;;;;;3.27;86.82;100043.68;105494;1322;22682;-77
2021/12/15 08:58:53;;;;;;;127.30;59.10;;;;;;;3.28;87.07;100041.77;105500;1322;22653;-78
2021/12/15 09:01:21;;;;;;;133.20;56.60;;;;;;;3.28;86.95;100037.65;105473;1322;22674;-77
2021/12/15 09:03:48;;;;;;;136.80;54.90;;;;;;;3.26;87.05;100032.66;105479;1320;22585;-78
2021/12/15 09:06:16;;;;;;;148.00;58.20;;;;;;;3.28;86.87;100032.31;105472;1322;22589;-77
2021/12/15 09:08:45;;;;;;;153.30;58.90;;;;;;;3.32;86.56;100027.07;105504;1317;22753;-77
2021/12/15 09:11:15;;;;;;;145.00;57.50;;;;;;;3.35;86.53;100026.69;105510;1317;22597;-79
2021/12/15 09:13:47;;;;;;;136.70;56.80;;;;;;;3.36;86.69;100028.23;105529;1322;22773;-77
2021/12/15 09:16:14;;;;;;;128.30;55.30;;;;;;;3.38;87.16;100026.66;105522;1318;22588;-77
2021/12/15 09:18:44;;;;;;;122.90;54.30;;;;;;;3.40;87.02;100025.06;105508;1322;22650;-77
2021/12/15 09:21:13;;;;;;;125.80;55.30;;;;;;;3.40;86.78;100022.33;105420;1322;22802;-78
2021/12/15 09:23:40;;;;;;;133.10;55.40;;;;;;;3.43;86.58;100021.76;105526;1322;22675;-78
2021/12/15 09:26:08;;;;;;;128.80;54.90;;;;;;;3.50;86.80;100020.63;105517;1322;22743;-77
2021/12/15 09:28:35;;;;;;;117.10;51.80;;;;;;;3.55;86.76;100024.17;105530;1322;22608;-78
2021/12/15 09:31:05;;;;;;;116.30;52.10;;;;;;;3.57;86.77;100021.58;105530;1322;22757;-77
2021/12/15 09:33:34;;;;;;;115.00;52.00;;;;;;;3.59;87.06;100022.89;105529;1322;25506;-78
2021/12/15 09:36:03;;;;;;;131.50;54.80;;;;;;;3.59;87.32;100014.79;105520;1322;22699;-78
2021/12/15 09:38:31;;;;;;;116.70;49.50;;;;;;;3.62;87.15;100017.34;105549;1322;22804;-78
2021/12/15 09:41:01;;;;;;;113.70;49.40;;;;;;;3.69;86.92;100016.20;105555;1321;22599;-77
2021/12/15 09:43:31;;;;;;;103.60;45.30;;;;;;;3.72;87.31;100013.58;105545;1322;22592;-77
2021/12/15 09:46:24;;;;;;;109.90;48.20;;;;;;;3.71;87.31;100013.75;105525;1321;22590;-77
2021/12/15 09:57:23;;;;;;;110.60;46.50;;;;;;;3.86;87.05;100017.49;105527;1322;22601;-78
2021/12/15 10:02:51;;;;;;;105.20;46.80;;;;;;;3.91;87.04;100013.95;105535;1322;22626;-78
2021/12/15 10:19:46;;;;;;;117.50;48.40;;;;;;;3.96;87.08;100005.77;105521;1322;24237;-77
2021/12/15 10:23:03;;;;;;;124.10;48.90;;;;;;;3.94;87.24;100005.27;105533;1322;24107;-77
2021/12/15 10:25:48;;;;;;;121.80;48.90;;;;;;;3.94;86.85;100003.55;105411;1322;22600;-77
2021/12/15 10:28:21;;;;;;;123.00;46.60;;;;;;;3.97;86.84;100001.62;105512;1322;25923;-77
2021/12/15 10:31:11;;;;;;;110.60;47.20;;;;;;;3.98;87.07;100004.02;105495;1322;22754;-78
2021/12/15 10:33:53;;;;;;;117.10;46.90;;;;;;;3.97;87.18;99995.58;105531;1322;22689;-78
2021/12/15 10:36:28;;;;;;;118.50;48.20;;;;;;;3.97;87.07;99989.55;105501;1322;22633;-78
2021/12/15 10:38:59;;;;;;;130.90;46.90;;;;;;;3.97;87.02;99991.95;105530;1322;24918;-78
2021/12/15 10:41:29;;;;;;;131.00;51.10;;;;;;;3.99;87.04;99985.56;105525;1322;22583;-78
2021/12/15 10:44:26;;;;;;;141.80;55.10;;;;;;;4.02;87.07;99984.48;105515;1322;22658;-77
2021/12/15 10:47:03;;;;;;;130.90;50.90;;;;;;;4.02;86.89;99986.71;105406;1322;22678;-77
2021/12/15 10:49:36;;;;;;;135.40;51.00;;;;;;;4.00;87.15;99982.61;105532;1322;22577;-77
2021/12/15 10:52:09;;;;;;;129.50;50.50;;;;;;;3.99;87.22;99975.39;105527;1322;22914;-77
2021/12/15 10:54:56;;;;;;;133.10;51.70;;;;;;;4.03;86.79;99971.01;105510;1322;22652;-77
2021/12/15 10:57:34;;;;;;;133.40;49.70;;;;;;;4.09;86.90;99962.10;105487;1322;22831;-78
2021/12/15 11:00:10;;;;;;;127.70;50.10;;;;;;;4.14;86.89;99957.86;105513;1316;22600;-78
2021/12/15 11:02:38;;;;;;;115.00;46.60;;;;;;;4.19;86.68;99965.23;105497;1321;22734;-78
2021/12/15 11:05:06;;;;;;;116.40;45.80;;;;;;;4.17;87.19;99965.76;105506;1322;22591;-78
2021/12/15 11:07:39;;;;;;;113.60;49.20;;;;;;;4.16;86.79;99969.05;105498;1323;22591;-76
2021/12/15 11:10:24;;;;;;;;;;;;;;;4.13;86.96;99967.70;105504;1322;22554;-76
2021/12/15 11:12:57;;;;;;;121.30;43.00;;;;;;;4.17;86.82;99967.48;105501;1322;25304;-77
2021/12/15 11:15:27;;;;;;;102.70;43.00;;;;;;;4.19;86.54;99955.56;105448;1322;22596;-78
2021/12/15 11:17:58;;;;;;;102.40;43.00;;;;;;;4.19;86.70;99953.66;105464;1323;22591;-78
2021/12/15 11:20:29;;;;;;;104.10;42.00;;;;;;;4.20;87.20;99949.85;105455;1322;22603;-76
2021/12/15 11:23:14;;;;;;;106.60;43.20;;;;;;;4.21;86.99;99950.15;105463;1323;22707;-76
2021/12/15 11:25:55;;;;;;;97.20;40.00;;;;;;;4.22;86.71;99952.21;105496;1322;22730;-78
2021/12/15 11:28:26;;;;;;;87.50;34.90;;;;;;;4.29;86.64;99955.18;105481;1322;22594;-76
2021/12/15 11:30:58;;;;;;;69.00;29.10;;;;;;;4.31;86.51;99951.52;105499;1322;22591;-76
2021/12/15 11:33:37;;;;;;;77.70;32.30;;;;;;;4.33;86.49;99954.59;105470;1322;22709;-77
2021/12/15 11:36:11;;;;;;;76.50;32.90;;;;;;;4.35;86.76;99955.95;105518;1322;23896;-76
2021/12/15 11:38:42;;;;;;;79.30;32.70;;;;;;;4.37;86.90;99951.42;105525;1322;24013;-79
2021/12/15 11:41:12;;;;;;;87.10;34.10;;;;;;;4.42;86.74;99944.94;105427;1322;22620;-77
2021/12/15 11:43:50;;;;;;;82.80;33.70;;;;;;;4.51;86.90;99936.64;105528;1323;22679;-78
2021/12/15 11:46:26;;;;;;;74.80;31.40;;;;;;;4.56;86.88;99938.45;105536;1322;22688;-78
2021/12/15 11:49:15;;;;;;;75.10;33.10;;;;;;;4.52;86.85;99935.25;105504;1322;22637;-77
2021/12/15 11:51:46;;;;;;;82.90;35.70;;;;;;;4.45;86.93;99936.43;105529;1322;23863;-77
2021/12/15 11:54:25;;;;;;;85.10;35.30;;;;;;;4.43;86.87;99941.46;105508;1323;25265;-77
2021/12/15 11:57:15;;;;;;;92.60;36.20;;;;;;;4.41;86.38;99941.67;105519;1322;22583;-77
2021/12/15 11:59:45;;;;;;;84.20;34.80;;;;;;;4.41;86.72;99940.29;105495;1322;22686;-77
2021/12/15 12:02:27;;;;;;;92.70;37.90;;;;;;;4.45;86.68;99934.18;105507;1322;22719;-77
2021/12/15 12:04:58;;;;;;;85.90;38.40;;;;;;;4.47;86.85;99932.75;105535;1322;22842;-77
2021/12/15 12:07:46;;;;;;;91.70;40.80;;;;;;;4.44;87.07;99939.55;105517;1322;22607;-77
2021/12/15 12:10:22;;;;;;;93.80;42.10;;;;;;;4.42;86.81;99942.52;105519;1322;22584;-77
2021/12/15 12:12:57;;;;;;;153.10;56.00;;;;;;;4.43;86.93;99943.71;105513;1322;25873;-77
2021/12/15 12:15:27;;;;;;;118.40;46.40;;;;;;;4.47;86.78;99943.09;105524;1320;22585;-77
2021/12/15 12:18:00;;;;;;;155.00;51.20;;;;;;;4.50;86.55;99936.14;105500;1322;22656;-78
2021/12/15 12:20:30;;;;;;;140.20;46.70;;;;;;;4.50;86.95;99935.28;105513;1322;23843;-77
2021/12/15 12:22:59;;;;;;;145.60;51.30;;;;;;;4.50;87.12;99937.02;105525;1319;22694;-78
2021/12/15 12:25:37;;;;;;;213.80;62.60;;;;;;;4.47;87.09;99934.84;105503;1322;24239;-77
2021/12/15 12:28:11;;;;;;;160.90;51.00;;;;;;;4.43;86.74;99933.02;105531;1322;22580;-78
2021/12/15 12:30:42;;;;;;;195.80;58.40;;;;;;;4.42;86.67;99933.02;105504;1319;23304;-78
2021/12/15 12:33:11;;;;;;;230.80;67.20;;;;;;;4.45;86.85;99928.31;105515;1322;24209;-78
2021/12/15 12:35:50;;;;;;;170.90;52.90;;;;;;;4.45;86.96;99929.17;105496;1322;22584;-78
2021/12/15 12:38:21;;;;;;;149.30;52.30;;;;;;;4.43;86.89;99927.50;105518;1322;22634;-78
2021/12/15 12:41:13;;;;;;;228.90;66.40;;;;;;;4.41;86.98;99926.48;105639;1321;25333;-78